Terminal Aerodrome Forecast
Issued by NWS

Home | Current Version | Previous Version | Text Only | Print | Product List | Glossary On
Versions: 1 2 3 4 5 6 7 8 9 10 11 12 13 14 15 16 17 18 19 20 21 22 23 24
000
FTUS46 KSGX 271439 AAA
TAFSAN
TAF AMD
KSAN 271439Z 2715/2818 VRB05KT P6SM SCT008 BKN160 BKN250
     FM271900 30010KT P6SM SCT250
     FM280200 VRB04KT P6SM FEW010
     FM280900 VRB04KT P6SM BKN010
     FM281600 VRB04KT P6SM SCT012=

USA.gov is the U.S. government's official web portal to all federal, state and local government web resources and services.